メインページ
METAR-TAF:

METAR-TAF

空港 :

ウィニペグ, マニトバ州, カナダ

ウィニペグ・ジェームス・アームストロング・リチャードソン国際空港

緯度: 49-54N, 経度: 097-14W, 海抜: 239m

現時点の気象観測

当レポートは23分前の16:12(UTC)に作成
の風 11kt
気温 -10°C
湿度 85%
気圧 1016 hPa
視程: 3.2km
高度4500ftの雲は散在している
高度12000ftの曇り
小雪, 低い地吹雪

METAR: CYWG 221612Z 19011KT 2SM -SN DRSN SCT045 OVC120 M10/M12 A3001 RMK SN2SC1AS5 SLP184

時間: 10:35 (16:35 UTC)

予報

当レポートは4時間57分前の11:38(UTC)に作成
予報は22日の 12時(UTC)から 23日の 12時(UTC)まで有効
南/南西の風 8kt
視程: 10km
高度4000ftの雲は散在している
高度12000ftの千切れ雲あり
高度22000ftの曇り
22日の 1300時(UTC)から
の風 10kt
視程: 10km
高度4000ftの千切れ雲あり
高度16000ftの曇り
小雪
22日の 13時(UTC)から 22日の 18時(UTC)まで一時的に
視程: 3.2km
高度2000ftの曇り
弱いにわか雪
22日の 1800時(UTC)から
の風 12kt
視程: 10km
高度2000ftの雲は散在している
高度4000ftの千切れ雲あり
22日の 18時(UTC)から 22日の 22時(UTC)まで一時的に
高度2000ftの千切れ雲あり
22日の 2200時(UTC)から
南/南西の風 8kt
視程: 10km
高度1200ftの雲は散在している
23日の 1000時(UTC)から
南西の風 6kt
視程: 10km
高度800ftの雲は散在している
高度6000ftの千切れ雲あり
高度22000ftの千切れ雲あり

TAF: CYWG 221138Z 2212/2312 20008KT P6SM SCT040 BKN120 OVC220 FM221300 18010KT P6SM -SN BKN040 OVC160 TEMPO 2213/2218 2SM -SHSN OVC020 FM221800 17012KT P6SM SCT020 BKN040 TEMPO 2218/2222 BKN020 FM222200 20008KT P6SM SCT012 FM231000 22006KT P6SM SCT008 BKN060 BKN220 RMK NXT FCST BY 221800Z

4,000以上の空港の気象観測と天気予報(METAR報とTAF報)

利用可能な観測所は地図上に黄色い丸と赤い丸で示す。

丸の上にカーソルを重ねると観測所名を参照できる。

次にクリックすると気象観測と天気予報を参照できる。

マップの切り替え:黒色「×」印の緑ボタンをクリックして拡大、「-」印の緑ボタンをクリックして縮小、緑色の三角印をクリックして隣りの地図に切り替え


METAR-TAF: